sensor_id;sensor_type;location;lat;lon;timestamp;temperature;humidity
51619;DHT22;38518;53.164;5.430;2023-06-14T00:01:51;16.10;1.00
51619;DHT22;38518;53.164;5.430;2023-06-14T00:04:19;16.20;1.00
51619;DHT22;38518;53.164;5.430;2023-06-14T00:06:49;16.10;1.00
51619;DHT22;38518;53.164;5.430;2023-06-14T00:09:16;16.00;1.00
51619;DHT22;38518;53.164;5.430;2023-06-14T00:11:43;16.00;1.00
51619;DHT22;38518;53.164;5.430;2023-06-14T00:14:09;16.00;1.00
51619;DHT22;38518;53.164;5.430;2023-06-14T00:16:35;15.90;1.00
51619;DHT22;38518;53.164;5.430;2023-06-14T00:19:04;15.90;1.00
51619;DHT22;38518;53.164;5.430;2023-06-14T00:21:33;15.80;1.00
51619;DHT22;38518;53.164;5.430;2023-06-14T00:23:59;15.80;1.00
51619;DHT22;38518;53.164;5.430;2023-06-14T00:26:25;15.80;1.00
51619;DHT22;38518;53.164;5.430;2023-06-14T00:28:52;15.70;1.00
51619;DHT22;38518;53.164;5.430;2023-06-14T00:31:18;15.70;1.00
51619;DHT22;38518;53.164;5.430;2023-06-14T00:33:44;15.70;1.00
51619;DHT22;38518;53.164;5.430;2023-06-14T00:36:10;15.70;1.00
51619;DHT22;38518;53.164;5.430;2023-06-14T00:38:36;15.60;1.00
51619;DHT22;38518;53.164;5.430;2023-06-14T00:41:02;15.60;1.00
51619;DHT22;38518;53.164;5.430;2023-06-14T00:43:28;15.60;1.00
51619;DHT22;38518;53.164;5.430;2023-06-14T00:45:53;15.60;1.00
51619;DHT22;38518;53.164;5.430;2023-06-14T00:48:19;15.50;1.00
51619;DHT22;38518;53.164;5.430;2023-06-14T00:50:49;15.50;1.00
51619;DHT22;38518;53.164;5.430;2023-06-14T00:53:17;15.40;1.00
51619;DHT22;38518;53.164;5.430;2023-06-14T00:55:48;15.40;1.00
51619;DHT22;38518;53.164;5.430;2023-06-14T00:58:15;15.30;1.00
51619;DHT22;38518;53.164;5.430;2023-06-14T01:00:41;15.10;1.00
51619;DHT22;38518;53.164;5.430;2023-06-14T01:03:07;15.30;1.00
51619;DHT22;38518;53.164;5.430;2023-06-14T01:05:37;15.20;1.00
51619;DHT22;38518;53.164;5.430;2023-06-14T01:10:53;15.10;1.00
51619;DHT22;38518;53.164;5.430;2023-06-14T01:13:29;15.20;1.00
51619;DHT22;38518;53.164;5.430;2023-06-14T01:15:57;15.20;1.00
51619;DHT22;38518;53.164;5.430;2023-06-14T01:18:24;15.10;1.00
51619;DHT22;38518;53.164;5.430;2023-06-14T01:20:51;15.10;1.00
51619;DHT22;38518;53.164;5.430;2023-06-14T01:23:21;15.10;1.00
51619;DHT22;38518;53.164;5.430;2023-06-14T01:25:48;15.10;1.00
51619;DHT22;38518;53.164;5.430;2023-06-14T01:28:18;15.10;1.00
51619;DHT22;38518;53.164;5.430;2023-06-14T01:30:52;15.00;1.00
51619;DHT22;38518;53.164;5.430;2023-06-14T01:33:22;15.00;1.00
51619;DHT22;38518;53.164;5.430;2023-06-14T01:35:53;15.00;1.00
51619;DHT22;38518;53.164;5.430;2023-06-14T01:38:21;15.00;1.00
51619;DHT22;38518;53.164;5.430;2023-06-14T01:40:48;15.00;1.00
51619;DHT22;38518;53.164;5.430;2023-06-14T01:43:17;14.90;1.00
51619;DHT22;38518;53.164;5.430;2023-06-14T01:45:45;14.80;1.00
51619;DHT22;38518;53.164;5.430;2023-06-14T01:48:20;14.80;1.00
51619;DHT22;38518;53.164;5.430;2023-06-14T01:50:48;14.80;1.00
51619;DHT22;38518;53.164;5.430;2023-06-14T01:53:14;14.80;1.00
51619;DHT22;38518;53.164;5.430;2023-06-14T01:55:40;14.80;1.00
51619;DHT22;38518;53.164;5.430;2023-06-14T01:58:09;14.80;1.00
51619;DHT22;38518;53.164;5.430;2023-06-14T02:00:36;14.70;1.00
51619;DHT22;38518;53.164;5.430;2023-06-14T02:03:02;14.70;1.00
51619;DHT22;38518;53.164;5.430;2023-06-14T02:05:30;14.60;1.00
51619;DHT22;38518;53.164;5.430;2023-06-14T02:07:56;14.70;1.00
51619;DHT22;38518;53.164;5.430;2023-06-14T02:10:22;14.70;1.00
51619;DHT22;38518;53.164;5.430;2023-06-14T02:12:47;14.60;1.00
51619;DHT22;38518;53.164;5.430;2023-06-14T02:15:13;14.60;1.00
51619;DHT22;38518;53.164;5.430;2023-06-14T02:17:43;14.50;1.00
51619;DHT22;38518;53.164;5.430;2023-06-14T02:20:09;14.50;1.00
51619;DHT22;38518;53.164;5.430;2023-06-14T02:22:35;14.40;1.00
51619;DHT22;38518;53.164;5.430;2023-06-14T02:25:00;14.40;1.00
51619;DHT22;38518;53.164;5.430;2023-06-14T02:27:26;14.40;1.00
51619;DHT22;38518;53.164;5.430;2023-06-14T02:29:52;14.40;1.00
51619;DHT22;38518;53.164;5.430;2023-06-14T02:32:18;14.40;1.00
51619;DHT22;38518;53.164;5.430;2023-06-14T02:34:43;14.40;1.00
51619;DHT22;38518;53.164;5.430;2023-06-14T02:37:09;14.30;1.00
51619;DHT22;38518;53.164;5.430;2023-06-14T02:39:36;14.30;1.00
51619;DHT22;38518;53.164;5.430;2023-06-14T02:42:02;14.30;1.00
51619;DHT22;38518;53.164;5.430;2023-06-14T02:44:29;14.30;1.00
51619;DHT22;38518;53.164;5.430;2023-06-14T02:46:55;14.20;1.00
51619;DHT22;38518;53.164;5.430;2023-06-14T02:49:22;14.20;1.00
51619;DHT22;38518;53.164;5.430;2023-06-14T02:51:47;14.20;1.00
51619;DHT22;38518;53.164;5.430;2023-06-14T02:54:13;14.20;1.00
51619;DHT22;38518;53.164;5.430;2023-06-14T02:56:39;14.20;1.00
51619;DHT22;38518;53.164;5.430;2023-06-14T02:59:06;14.20;1.00
51619;DHT22;38518;53.164;5.430;2023-06-14T03:01:35;14.10;1.00
51619;DHT22;38518;53.164;5.430;2023-06-14T03:04:07;14.10;1.00
51619;DHT22;38518;53.164;5.430;2023-06-14T03:06:33;13.50;1.00
51619;DHT22;38518;53.164;5.430;2023-06-14T03:09:00;14.10;1.00
51619;DHT22;38518;53.164;5.430;2023-06-14T03:11:29;14.10;1.00
51619;DHT22;38518;53.164;5.430;2023-06-14T03:13:55;14.10;1.00
51619;DHT22;38518;53.164;5.430;2023-06-14T03:16:22;14.10;1.00
51619;DHT22;38518;53.164;5.430;2023-06-14T03:18:50;14.00;1.00
51619;DHT22;38518;53.164;5.430;2023-06-14T03:21:17;14.00;1.00
51619;DHT22;38518;53.164;5.430;2023-06-14T03:23:43;14.00;1.00
51619;DHT22;38518;53.164;5.430;2023-06-14T03:26:09;14.00;1.00
51619;DHT22;38518;53.164;5.430;2023-06-14T03:28:38;14.00;1.00
51619;DHT22;38518;53.164;5.430;2023-06-14T03:31:04;14.00;1.00
51619;DHT22;38518;53.164;5.430;2023-06-14T03:33:30;14.00;1.00
51619;DHT22;38518;53.164;5.430;2023-06-14T03:35:55;14.00;1.00
51619;DHT22;38518;53.164;5.430;2023-06-14T03:38:22;14.00;1.00
51619;DHT22;38518;53.164;5.430;2023-06-14T03:40:48;14.00;1.00
51619;DHT22;38518;53.164;5.430;2023-06-14T03:43:13;14.00;1.00
51619;DHT22;38518;53.164;5.430;2023-06-14T03:45:39;14.00;1.00
51619;DHT22;38518;53.164;5.430;2023-06-14T03:48:05;14.00;1.00
51619;DHT22;38518;53.164;5.430;2023-06-14T03:50:32;13.90;1.00
51619;DHT22;38518;53.164;5.430;2023-06-14T03:52:58;14.00;1.00
51619;DHT22;38518;53.164;5.430;2023-06-14T03:55:24;14.00;1.00
51619;DHT22;38518;53.164;5.430;2023-06-14T03:57:51;14.00;1.00
51619;DHT22;38518;53.164;5.430;2023-06-14T04:00:17;14.00;1.00
51619;DHT22;38518;53.164;5.430;2023-06-14T04:02:43;14.00;1.00
51619;DHT22;38518;53.164;5.430;2023-06-14T04:05:10;14.00;1.00
51619;DHT22;38518;53.164;5.430;2023-06-14T04:07:35;14.00;1.00
51619;DHT22;38518;53.164;5.430;2023-06-14T04:10:11;14.00;1.00
51619;DHT22;38518;53.164;5.430;2023-06-14T04:12:37;14.10;1.00
51619;DHT22;38518;53.164;5.430;2023-06-14T04:15:03;14.10;1.00
51619;DHT22;38518;53.164;5.430;2023-06-14T04:17:32;14.20;1.00
51619;DHT22;38518;53.164;5.430;2023-06-14T04:20:01;14.10;1.00
51619;DHT22;38518;53.164;5.430;2023-06-14T04:22:27;14.10;1.00
51619;DHT22;38518;53.164;5.430;2023-06-14T04:24:57;14.10;1.00
51619;DHT22;38518;53.164;5.430;2023-06-14T04:27:23;14.20;1.00
51619;DHT22;38518;53.164;5.430;2023-06-14T04:29:55;14.20;1.00
51619;DHT22;38518;53.164;5.430;2023-06-14T04:32:25;14.20;1.00
51619;DHT22;38518;53.164;5.430;2023-06-14T04:34:55;14.30;1.00
51619;DHT22;38518;53.164;5.430;2023-06-14T04:37:21;14.30;1.00
51619;DHT22;38518;53.164;5.430;2023-06-14T04:39:48;14.30;1.00
51619;DHT22;38518;53.164;5.430;2023-06-14T04:42:14;14.30;1.00
51619;DHT22;38518;53.164;5.430;2023-06-14T04:44:42;14.30;1.00
51619;DHT22;38518;53.164;5.430;2023-06-14T04:47:10;14.30;1.00
51619;DHT22;38518;53.164;5.430;2023-06-14T04:49:36;14.40;1.00
51619;DHT22;38518;53.164;5.430;2023-06-14T04:52:02;14.40;1.00
51619;DHT22;38518;53.164;5.430;2023-06-14T04:54:28;14.50;1.00
51619;DHT22;38518;53.164;5.430;2023-06-14T04:56:57;14.50;1.00
51619;DHT22;38518;53.164;5.430;2023-06-14T04:59:23;14.60;1.00
51619;DHT22;38518;53.164;5.430;2023-06-14T05:01:49;14.60;1.00
51619;DHT22;38518;53.164;5.430;2023-06-14T05:04:15;14.70;1.00
51619;DHT22;38518;53.164;5.430;2023-06-14T05:06:45;14.70;1.00
51619;DHT22;38518;53.164;5.430;2023-06-14T05:09:12;14.70;1.00
51619;DHT22;38518;53.164;5.430;2023-06-14T05:11:38;14.80;1.00
51619;DHT22;38518;53.164;5.430;2023-06-14T05:14:04;14.90;1.00
51619;DHT22;38518;53.164;5.430;2023-06-14T05:16:31;14.90;1.00
51619;DHT22;38518;53.164;5.430;2023-06-14T05:18:57;15.00;1.00
51619;DHT22;38518;53.164;5.430;2023-06-14T05:21:24;15.10;1.00
51619;DHT22;38518;53.164;5.430;2023-06-14T05:23:49;15.10;1.00
51619;DHT22;38518;53.164;5.430;2023-06-14T05:26:16;15.20;1.00
51619;DHT22;38518;53.164;5.430;2023-06-14T05:28:42;15.30;1.00
51619;DHT22;38518;53.164;5.430;2023-06-14T05:31:08;15.40;1.00
51619;DHT22;38518;53.164;5.430;2023-06-14T05:33:33;15.50;1.00
51619;DHT22;38518;53.164;5.430;2023-06-14T05:35:59;15.50;1.00
51619;DHT22;38518;53.164;5.430;2023-06-14T05:38:25;15.60;1.00
51619;DHT22;38518;53.164;5.430;2023-06-14T05:40:51;15.70;1.00
51619;DHT22;38518;53.164;5.430;2023-06-14T05:43:17;15.80;1.00
51619;DHT22;38518;53.164;5.430;2023-06-14T05:45:42;15.90;1.00
51619;DHT22;38518;53.164;5.430;2023-06-14T05:48:08;16.00;1.00
51619;DHT22;38518;53.164;5.430;2023-06-14T05:50:34;16.10;1.00
51619;DHT22;38518;53.164;5.430;2023-06-14T05:52:59;16.20;1.00
51619;DHT22;38518;53.164;5.430;2023-06-14T05:55:25;16.30;1.00
51619;DHT22;38518;53.164;5.430;2023-06-14T05:57:51;16.50;1.00
51619;DHT22;38518;53.164;5.430;2023-06-14T06:00:17;16.80;1.00
51619;DHT22;38518;53.164;5.430;2023-06-14T06:02:43;17.00;1.00
51619;DHT22;38518;53.164;5.430;2023-06-14T06:05:10;18.00;1.00
51619;DHT22;38518;53.164;5.430;2023-06-14T06:07:36;18.50;1.00
51619;DHT22;38518;53.164;5.430;2023-06-14T06:10:03;19.00;1.00
51619;DHT22;38518;53.164;5.430;2023-06-14T06:12:30;19.40;1.00
51619;DHT22;38518;53.164;5.430;2023-06-14T06:14:56;19.80;1.00
51619;DHT22;38518;53.164;5.430;2023-06-14T06:17:22;20.10;1.00
51619;DHT22;38518;53.164;5.430;2023-06-14T06:19:47;20.30;1.00
51619;DHT22;38518;53.164;5.430;2023-06-14T06:22:13;20.40;1.00
51619;DHT22;38518;53.164;5.430;2023-06-14T06:24:39;20.50;1.00
51619;DHT22;38518;53.164;5.430;2023-06-14T06:27:05;20.60;1.00
51619;DHT22;38518;53.164;5.430;2023-06-14T06:29:34;20.90;1.00
51619;DHT22;38518;53.164;5.430;2023-06-14T06:32:00;21.10;1.00
51619;DHT22;38518;53.164;5.430;2023-06-14T06:34:26;21.30;1.00
51619;DHT22;38518;53.164;5.430;2023-06-14T06:36:52;21.50;1.00
51619;DHT22;38518;53.164;5.430;2023-06-14T06:39:18;21.30;1.00
51619;DHT22;38518;53.164;5.430;2023-06-14T06:41:44;21.70;1.00
51619;DHT22;38518;53.164;5.430;2023-06-14T06:44:09;21.80;1.00
51619;DHT22;38518;53.164;5.430;2023-06-14T06:46:36;22.00;1.00
51619;DHT22;38518;53.164;5.430;2023-06-14T06:49:06;22.10;1.00
51619;DHT22;38518;53.164;5.430;2023-06-14T06:51:32;22.20;1.00
51619;DHT22;38518;53.164;5.430;2023-06-14T06:53:58;22.30;1.00
51619;DHT22;38518;53.164;5.430;2023-06-14T06:56:26;22.30;1.00
51619;DHT22;38518;53.164;5.430;2023-06-14T06:58:52;22.50;1.00
51619;DHT22;38518;53.164;5.430;2023-06-14T07:01:18;22.60;1.00
51619;DHT22;38518;53.164;5.430;2023-06-14T07:03:47;22.90;1.00
51619;DHT22;38518;53.164;5.430;2023-06-14T07:06:13;23.10;1.00
51619;DHT22;38518;53.164;5.430;2023-06-14T07:08:38;23.20;1.00
51619;DHT22;38518;53.164;5.430;2023-06-14T07:11:05;23.30;1.00
51619;DHT22;38518;53.164;5.430;2023-06-14T07:13:31;22.90;1.00
51619;DHT22;38518;53.164;5.430;2023-06-14T07:16:00;23.50;1.00
51619;DHT22;38518;53.164;5.430;2023-06-14T07:18:27;23.70;1.00
51619;DHT22;38518;53.164;5.430;2023-06-14T07:20:53;23.70;1.00
51619;DHT22;38518;53.164;5.430;2023-06-14T07:23:20;23.80;1.00
51619;DHT22;38518;53.164;5.430;2023-06-14T07:25:46;23.90;1.00
51619;DHT22;38518;53.164;5.430;2023-06-14T07:28:12;24.00;1.00
51619;DHT22;38518;53.164;5.430;2023-06-14T07:30:38;24.20;1.00
51619;DHT22;38518;53.164;5.430;2023-06-14T07:33:03;24.20;1.00
51619;DHT22;38518;53.164;5.430;2023-06-14T07:35:29;24.30;1.00
51619;DHT22;38518;53.164;5.430;2023-06-14T07:37:55;24.40;1.00
51619;DHT22;38518;53.164;5.430;2023-06-14T07:40:21;24.60;1.00
51619;DHT22;38518;53.164;5.430;2023-06-14T07:42:47;24.80;1.00
51619;DHT22;38518;53.164;5.430;2023-06-14T07:45:16;25.10;1.00
51619;DHT22;38518;53.164;5.430;2023-06-14T07:47:42;25.30;1.00
51619;DHT22;38518;53.164;5.430;2023-06-14T07:50:08;25.50;1.00
51619;DHT22;38518;53.164;5.430;2023-06-14T07:52:34;25.50;1.00
51619;DHT22;38518;53.164;5.430;2023-06-14T07:55:00;25.70;1.00
51619;DHT22;38518;53.164;5.430;2023-06-14T07:57:26;25.50;1.00
51619;DHT22;38518;53.164;5.430;2023-06-14T07:59:52;25.70;1.00
51619;DHT22;38518;53.164;5.430;2023-06-14T08:02:18;25.80;1.00
51619;DHT22;38518;53.164;5.430;2023-06-14T08:04:44;26.20;1.00
51619;DHT22;38518;53.164;5.430;2023-06-14T08:07:09;26.30;1.00
51619;DHT22;38518;53.164;5.430;2023-06-14T08:09:37;26.40;1.00
51619;DHT22;38518;53.164;5.430;2023-06-14T08:12:05;26.70;1.00
51619;DHT22;38518;53.164;5.430;2023-06-14T08:14:33;27.00;1.00
51619;DHT22;38518;53.164;5.430;2023-06-14T08:16:59;27.10;1.00
51619;DHT22;38518;53.164;5.430;2023-06-14T08:19:25;27.30;1.00
51619;DHT22;38518;53.164;5.430;2023-06-14T08:21:51;27.40;1.00
51619;DHT22;38518;53.164;5.430;2023-06-14T08:24:17;27.50;1.00
51619;DHT22;38518;53.164;5.430;2023-06-14T08:26:44;27.60;1.00
51619;DHT22;38518;53.164;5.430;2023-06-14T08:29:10;27.70;1.00
51619;DHT22;38518;53.164;5.430;2023-06-14T08:31:36;27.90;1.00
51619;DHT22;38518;53.164;5.430;2023-06-14T08:34:01;28.20;1.00
51619;DHT22;38518;53.164;5.430;2023-06-14T08:36:27;28.20;1.00
51619;DHT22;38518;53.164;5.430;2023-06-14T08:38:53;28.20;1.00
51619;DHT22;38518;53.164;5.430;2023-06-14T08:41:22;28.10;1.00
51619;DHT22;38518;53.164;5.430;2023-06-14T08:43:52;28.30;1.00
51619;DHT22;38518;53.164;5.430;2023-06-14T08:46:21;28.60;1.00
51619;DHT22;38518;53.164;5.430;2023-06-14T08:48:52;28.80;1.00
51619;DHT22;38518;53.164;5.430;2023-06-14T08:51:19;28.80;1.00
51619;DHT22;38518;53.164;5.430;2023-06-14T08:53:45;28.90;1.00
51619;DHT22;38518;53.164;5.430;2023-06-14T08:56:12;29.10;1.00
51619;DHT22;38518;53.164;5.430;2023-06-14T08:58:44;29.20;1.00
51619;DHT22;38518;53.164;5.430;2023-06-14T09:01:13;29.40;1.00
51619;DHT22;38518;53.164;5.430;2023-06-14T09:03:42;29.50;1.00
51619;DHT22;38518;53.164;5.430;2023-06-14T09:06:08;29.50;1.00
51619;DHT22;38518;53.164;5.430;2023-06-14T09:08:43;29.80;1.00
51619;DHT22;38518;53.164;5.430;2023-06-14T09:11:14;30.10;1.00
51619;DHT22;38518;53.164;5.430;2023-06-14T09:13:41;30.20;1.00
51619;DHT22;38518;53.164;5.430;2023-06-14T09:16:07;30.30;1.00
51619;DHT22;38518;53.164;5.430;2023-06-14T09:18:38;30.30;1.00
51619;DHT22;38518;53.164;5.430;2023-06-14T09:21:07;30.50;1.00
51619;DHT22;38518;53.164;5.430;2023-06-14T09:23:39;30.70;1.00
51619;DHT22;38518;53.164;5.430;2023-06-14T09:26:09;30.20;1.00
51619;DHT22;38518;53.164;5.430;2023-06-14T09:28:36;30.10;1.00
51619;DHT22;38518;53.164;5.430;2023-06-14T09:31:02;30.20;1.00
51619;DHT22;38518;53.164;5.430;2023-06-14T09:33:28;30.50;1.00
51619;DHT22;38518;53.164;5.430;2023-06-14T09:35:54;30.50;1.00
51619;DHT22;38518;53.164;5.430;2023-06-14T09:38:20;31.00;1.00
51619;DHT22;38518;53.164;5.430;2023-06-14T09:40:49;30.80;1.00
51619;DHT22;38518;53.164;5.430;2023-06-14T09:43:15;30.70;1.00
51619;DHT22;38518;53.164;5.430;2023-06-14T09:45:42;30.80;1.00
51619;DHT22;38518;53.164;5.430;2023-06-14T09:48:11;30.90;1.00
51619;DHT22;38518;53.164;5.430;2023-06-14T09:50:39;30.80;1.00
51619;DHT22;38518;53.164;5.430;2023-06-14T09:53:10;31.00;1.00
51619;DHT22;38518;53.164;5.430;2023-06-14T09:55:37;31.00;1.00
51619;DHT22;38518;53.164;5.430;2023-06-14T09:58:07;31.10;1.00
51619;DHT22;38518;53.164;5.430;2023-06-14T10:00:33;31.20;1.00
51619;DHT22;38518;53.164;5.430;2023-06-14T10:03:12;31.50;1.00
51619;DHT22;38518;53.164;5.430;2023-06-14T10:05:41;31.60;1.00
51619;DHT22;38518;53.164;5.430;2023-06-14T10:08:15;31.60;1.00
51619;DHT22;38518;53.164;5.430;2023-06-14T10:10:43;31.80;1.00
51619;DHT22;38518;53.164;5.430;2023-06-14T10:13:11;31.70;1.00
51619;DHT22;38518;53.164;5.430;2023-06-14T10:18:55;32.20;1.00
51619;DHT22;38518;53.164;5.430;2023-06-14T10:21:46;32.30;1.00
51619;DHT22;38518;53.164;5.430;2023-06-14T10:24:20;32.50;1.00
51619;DHT22;38518;53.164;5.430;2023-06-14T10:26:53;32.50;1.00
51619;DHT22;38518;53.164;5.430;2023-06-14T10:29:19;31.00;1.00
51619;DHT22;38518;53.164;5.430;2023-06-14T10:31:47;32.50;1.00
51619;DHT22;38518;53.164;5.430;2023-06-14T10:34:27;32.60;1.00
51619;DHT22;38518;53.164;5.430;2023-06-14T10:37:20;32.40;1.00
51619;DHT22;38518;53.164;5.430;2023-06-14T10:39:46;32.40;1.00
51619;DHT22;38518;53.164;5.430;2023-06-14T10:42:12;32.60;1.00
51619;DHT22;38518;53.164;5.430;2023-06-14T10:44:43;32.90;1.00
51619;DHT22;38518;53.164;5.430;2023-06-14T10:50:05;32.90;1.00
51619;DHT22;38518;53.164;5.430;2023-06-14T10:52:38;32.90;1.00
51619;DHT22;38518;53.164;5.430;2023-06-14T10:55:17;32.50;1.00
51619;DHT22;38518;53.164;5.430;2023-06-14T10:57:44;32.70;1.00
51619;DHT22;38518;53.164;5.430;2023-06-14T11:00:18;32.80;1.00
51619;DHT22;38518;53.164;5.430;2023-06-14T11:03:26;32.80;1.00
51619;DHT22;38518;53.164;5.430;2023-06-14T11:05:58;32.90;1.00
51619;DHT22;38518;53.164;5.430;2023-06-14T11:11:32;32.70;1.00
51619;DHT22;38518;53.164;5.430;2023-06-14T11:14:01;33.00;1.00
51619;DHT22;38518;53.164;5.430;2023-06-14T11:16:28;33.20;1.00
51619;DHT22;38518;53.164;5.430;2023-06-14T11:18:54;33.10;1.00
51619;DHT22;38518;53.164;5.430;2023-06-14T11:21:20;32.90;1.00
51619;DHT22;38518;53.164;5.430;2023-06-14T11:23:53;32.90;1.00
51619;DHT22;38518;53.164;5.430;2023-06-14T11:26:27;32.90;1.00
51619;DHT22;38518;53.164;5.430;2023-06-14T11:28:58;33.10;1.00
51619;DHT22;38518;53.164;5.430;2023-06-14T11:31:25;33.10;1.00
51619;DHT22;38518;53.164;5.430;2023-06-14T11:33:54;33.20;1.00
51619;DHT22;38518;53.164;5.430;2023-06-14T11:36:20;33.40;1.00
51619;DHT22;38518;53.164;5.430;2023-06-14T11:38:46;33.80;1.00
51619;DHT22;38518;53.164;5.430;2023-06-14T11:41:12;34.00;1.00
51619;DHT22;38518;53.164;5.430;2023-06-14T11:43:40;34.20;1.00
51619;DHT22;38518;53.164;5.430;2023-06-14T11:46:13;34.20;1.00
51619;DHT22;38518;53.164;5.430;2023-06-14T11:48:41;34.20;1.00
51619;DHT22;38518;53.164;5.430;2023-06-14T11:51:07;34.10;1.00
51619;DHT22;38518;53.164;5.430;2023-06-14T11:53:33;33.70;1.00
51619;DHT22;38518;53.164;5.430;2023-06-14T11:56:00;32.70;1.00
51619;DHT22;38518;53.164;5.430;2023-06-14T11:58:26;32.50;1.00
51619;DHT22;38518;53.164;5.430;2023-06-14T12:00:53;32.60;1.00
51619;DHT22;38518;53.164;5.430;2023-06-14T12:03:24;32.80;1.00
51619;DHT22;38518;53.164;5.430;2023-06-14T12:06:07;32.90;1.00
51619;DHT22;38518;53.164;5.430;2023-06-14T12:08:34;32.80;1.00
51619;DHT22;38518;53.164;5.430;2023-06-14T12:11:13;33.20;1.00
51619;DHT22;38518;53.164;5.430;2023-06-14T12:13:41;33.30;1.00
51619;DHT22;38518;53.164;5.430;2023-06-14T12:16:11;33.40;1.00
51619;DHT22;38518;53.164;5.430;2023-06-14T12:18:39;33.40;1.00
51619;DHT22;38518;53.164;5.430;2023-06-14T12:21:07;33.50;1.00
51619;DHT22;38518;53.164;5.430;2023-06-14T12:23:46;33.70;1.00
51619;DHT22;38518;53.164;5.430;2023-06-14T12:26:16;33.30;1.00
51619;DHT22;38518;53.164;5.430;2023-06-14T12:28:44;32.80;1.00
51619;DHT22;38518;53.164;5.430;2023-06-14T12:31:11;32.80;1.00
51619;DHT22;38518;53.164;5.430;2023-06-14T12:33:39;32.90;1.00
51619;DHT22;38518;53.164;5.430;2023-06-14T12:36:06;33.00;1.00
51619;DHT22;38518;53.164;5.430;2023-06-14T12:38:33;33.40;1.00
51619;DHT22;38518;53.164;5.430;2023-06-14T12:40:59;33.40;1.00
51619;DHT22;38518;53.164;5.430;2023-06-14T12:43:25;33.40;1.00
51619;DHT22;38518;53.164;5.430;2023-06-14T12:45:51;33.30;1.00
51619;DHT22;38518;53.164;5.430;2023-06-14T12:48:17;33.80;1.00
51619;DHT22;38518;53.164;5.430;2023-06-14T12:50:43;33.60;1.00
51619;DHT22;38518;53.164;5.430;2023-06-14T12:53:09;33.40;1.00
51619;DHT22;38518;53.164;5.430;2023-06-14T12:55:34;33.40;1.00
51619;DHT22;38518;53.164;5.430;2023-06-14T12:58:00;33.40;1.00
51619;DHT22;38518;53.164;5.430;2023-06-14T13:00:26;32.90;1.00
51619;DHT22;38518;53.164;5.430;2023-06-14T13:02:52;32.40;1.00
51619;DHT22;38518;53.164;5.430;2023-06-14T13:05:18;32.50;1.00
51619;DHT22;38518;53.164;5.430;2023-06-14T13:07:44;32.90;1.00
51619;DHT22;38518;53.164;5.430;2023-06-14T13:10:10;33.40;1.00
51619;DHT22;38518;53.164;5.430;2023-06-14T13:12:36;33.60;1.00
51619;DHT22;38518;53.164;5.430;2023-06-14T13:15:02;33.50;1.00
51619;DHT22;38518;53.164;5.430;2023-06-14T13:17:28;33.50;1.00
51619;DHT22;38518;53.164;5.430;2023-06-14T13:19:54;33.20;1.00
51619;DHT22;38518;53.164;5.430;2023-06-14T13:22:20;32.90;1.00
51619;DHT22;38518;53.164;5.430;2023-06-14T13:24:46;32.90;1.00
51619;DHT22;38518;53.164;5.430;2023-06-14T13:27:11;32.90;1.00
51619;DHT22;38518;53.164;5.430;2023-06-14T13:29:40;33.00;1.00
51619;DHT22;38518;53.164;5.430;2023-06-14T13:32:06;32.50;1.00
51619;DHT22;38518;53.164;5.430;2023-06-14T13:34:32;31.60;1.00
51619;DHT22;38518;53.164;5.430;2023-06-14T13:36:58;31.00;1.00
51619;DHT22;38518;53.164;5.430;2023-06-14T13:39:26;30.60;1.00
51619;DHT22;38518;53.164;5.430;2023-06-14T13:41:52;31.10;1.00
51619;DHT22;38518;53.164;5.430;2023-06-14T13:44:18;31.30;1.00
51619;DHT22;38518;53.164;5.430;2023-06-14T13:46:46;31.30;1.00
51619;DHT22;38518;53.164;5.430;2023-06-14T13:49:12;31.40;1.00
51619;DHT22;38518;53.164;5.430;2023-06-14T13:51:38;31.80;1.00
51619;DHT22;38518;53.164;5.430;2023-06-14T13:54:04;32.10;1.00
51619;DHT22;38518;53.164;5.430;2023-06-14T13:56:30;32.30;1.00
51619;DHT22;38518;53.164;5.430;2023-06-14T13:58:56;32.30;1.00
51619;DHT22;38518;53.164;5.430;2023-06-14T14:01:22;32.40;1.00
51619;DHT22;38518;53.164;5.430;2023-06-14T14:03:48;32.80;1.00
51619;DHT22;38518;53.164;5.430;2023-06-14T14:06:15;32.80;1.00
51619;DHT22;38518;53.164;5.430;2023-06-14T14:08:42;32.80;1.00
51619;DHT22;38518;53.164;5.430;2023-06-14T14:11:07;33.00;1.00
51619;DHT22;38518;53.164;5.430;2023-06-14T14:13:35;33.30;1.00
51619;DHT22;38518;53.164;5.430;2023-06-14T14:16:05;33.30;1.00
51619;DHT22;38518;53.164;5.430;2023-06-14T14:18:31;33.40;1.00
51619;DHT22;38518;53.164;5.430;2023-06-14T14:20:58;33.50;1.00
51619;DHT22;38518;53.164;5.430;2023-06-14T14:23:24;33.50;1.00
51619;DHT22;38518;53.164;5.430;2023-06-14T14:25:50;33.50;1.00
51619;DHT22;38518;53.164;5.430;2023-06-14T14:28:15;33.40;1.00
51619;DHT22;38518;53.164;5.430;2023-06-14T14:30:44;32.90;1.00
51619;DHT22;38518;53.164;5.430;2023-06-14T14:33:13;32.60;1.00
51619;DHT22;38518;53.164;5.430;2023-06-14T14:35:45;32.90;1.00
51619;DHT22;38518;53.164;5.430;2023-06-14T14:38:16;32.90;1.00
51619;DHT22;38518;53.164;5.430;2023-06-14T14:40:43;33.00;1.00
51619;DHT22;38518;53.164;5.430;2023-06-14T14:43:12;33.00;1.00
51619;DHT22;38518;53.164;5.430;2023-06-14T14:45:43;33.10;1.00
51619;DHT22;38518;53.164;5.430;2023-06-14T14:48:09;32.90;1.00
51619;DHT22;38518;53.164;5.430;2023-06-14T14:50:35;32.90;1.00
51619;DHT22;38518;53.164;5.430;2023-06-14T14:53:01;33.10;1.00
51619;DHT22;38518;53.164;5.430;2023-06-14T14:55:27;33.20;1.00
51619;DHT22;38518;53.164;5.430;2023-06-14T14:57:53;33.40;1.00
51619;DHT22;38518;53.164;5.430;2023-06-14T15:00:18;33.50;1.00
51619;DHT22;38518;53.164;5.430;2023-06-14T15:02:44;33.40;1.00
51619;DHT22;38518;53.164;5.430;2023-06-14T15:05:10;33.30;1.00
51619;DHT22;38518;53.164;5.430;2023-06-14T15:07:36;33.00;1.00
51619;DHT22;38518;53.164;5.430;2023-06-14T15:10:02;32.90;1.00
51619;DHT22;38518;53.164;5.430;2023-06-14T15:12:28;32.80;1.00
51619;DHT22;38518;53.164;5.430;2023-06-14T15:14:54;32.70;1.00
51619;DHT22;38518;53.164;5.430;2023-06-14T15:17:21;32.50;1.00
51619;DHT22;38518;53.164;5.430;2023-06-14T15:19:48;32.30;1.00
51619;DHT22;38518;53.164;5.430;2023-06-14T15:32:58;33.00;1.00
51619;DHT22;38518;53.164;5.430;2023-06-14T15:35:27;33.00;1.00
51619;DHT22;38518;53.164;5.430;2023-06-14T15:37:54;32.80;1.00
51619;DHT22;38518;53.164;5.430;2023-06-14T15:40:20;32.60;1.00
51619;DHT22;38518;53.164;5.430;2023-06-14T15:42:46;32.20;1.00
51619;DHT22;38518;53.164;5.430;2023-06-14T15:45:12;31.30;1.00
51619;DHT22;38518;53.164;5.430;2023-06-14T15:47:38;29.90;1.00
51619;DHT22;38518;53.164;5.430;2023-06-14T15:50:05;28.80;1.00
51619;DHT22;38518;53.164;5.430;2023-06-14T15:52:33;28.10;1.00
51619;DHT22;38518;53.164;5.430;2023-06-14T15:55:01;27.60;1.00
51619;DHT22;38518;53.164;5.430;2023-06-14T15:57:27;27.20;1.00
51619;DHT22;38518;53.164;5.430;2023-06-14T15:59:53;26.90;1.00
51619;DHT22;38518;53.164;5.430;2023-06-14T16:02:18;26.50;1.00
51619;DHT22;38518;53.164;5.430;2023-06-14T16:04:44;26.10;1.00
51619;DHT22;38518;53.164;5.430;2023-06-14T16:07:10;25.80;1.00
51619;DHT22;38518;53.164;5.430;2023-06-14T16:09:38;25.70;1.00